Time;durP1;ratioP1;P1;durP2;ratioP2;P2;SDS_P1;SDS_P2;PMS_P1;PMS_P2;Temp;Humidity;BMP_temperature;BMP_pressure;BME280_temperature;BME280_humidity;BME280_pressure;Samples;Min_cycle;Max_cycle;Signal;HPM_P1;HPM_P2
2024/04/15 00:00:14;;;;;;;;;;;;;;;14.53;100.00;95353.78;5286499;26;19931;-71
2024/04/15 00:02:44;;;;;;;;;;;;;;;14.59;100.00;95322.81;5293490;26;19960;-71
2024/04/15 00:05:11;;;;;;;;;;;;;;;14.64;100.00;95308.34;5287298;26;19931;-71
2024/04/15 00:07:39;;;;;;;;;;;;;;;14.57;100.00;95308.78;5281692;27;19931;-72
2024/04/15 00:10:07;;;;;;;;;;;;;;;14.55;100.00;95304.78;5285807;26;19931;-71
2024/04/15 00:12:34;;;;;;;;;;;;;;;14.54;100.00;95282.34;5285306;26;19937;-72
2024/04/15 00:15:01;;;;;;;;;;;;;;;14.61;100.00;95281.91;5292615;26;20480;-71
2024/04/15 00:17:29;;;;;;;;;;;;;;;14.66;100.00;95266.34;5288063;26;19931;-71
2024/04/15 00:19:56;;;;;;;;;;;;;;;14.64;100.00;95273.16;5294404;26;19931;-71
2024/04/15 00:22:23;;;;;;;;;;;;;;;14.56;100.00;95268.50;5286586;26;20323;-71
2024/04/15 00:24:51;;;;;;;;;;;;;;;14.54;100.00;95262.63;5289877;26;20370;-71
2024/04/15 00:27:18;;;;;;;;;;;;;;;14.49;100.00;95236.50;5296261;26;19938;-72
2024/04/15 00:29:45;;;;;;;;;;;;;;;14.51;100.00;95231.59;5282279;26;19938;-71
2024/04/15 00:32:13;;;;;;;;;;;;;;;14.53;100.00;95215.06;5287208;26;19931;-70
2024/04/15 00:34:40;;;;;;;;;;;;;;;14.51;100.00;95195.63;5292877;26;19930;-71
2024/04/15 00:37:07;;;;;;;;;;;;;;;14.51;100.00;95191.03;5257907;27;19937;-71
2024/04/15 00:39:36;;;;;;;;;;;;;;;14.52;100.00;95181.81;5290825;26;19942;-72
2024/04/15 00:42:03;;;;;;;;;;;;;;;14.51;100.00;95177.50;5289636;26;19937;-72
2024/04/15 00:44:31;;;;;;;;;;;;;;;14.52;100.00;95167.47;5290302;26;19930;-71
2024/04/15 00:46:59;;;;;;;;;;;;;;;14.42;100.00;95163.16;5289546;26;19939;-72
2024/04/15 00:49:27;;;;;;;;;;;;;;;14.41;100.00;95153.44;5291537;26;19937;-71
2024/04/15 00:51:56;;;;;;;;;;;;;;;14.36;100.00;95138.13;5295702;26;20376;-71
2024/04/15 00:54:23;;;;;;;;;;;;;;;14.33;100.00;95127.94;5290168;26;20280;-71
2024/04/15 00:56:50;;;;;;;;;;;;;;;14.37;100.00;95109.19;5285800;26;19932;-71
2024/04/15 00:59:18;;;;;;;;;;;;;;;14.34;100.00;95099.00;5289975;26;20333;-72
2024/04/15 01:01:45;;;;;;;;;;;;;;;14.37;100.00;95099.16;5290268;26;19931;-71
2024/04/15 01:04:13;;;;;;;;;;;;;;;14.34;100.00;95093.59;5283724;26;20359;-72
2024/04/15 01:06:40;;;;;;;;;;;;;;;14.33;100.00;95086.56;5284598;26;20382;-71
2024/04/15 01:09:08;;;;;;;;;;;;;;;14.32;100.00;95093.88;5284894;26;19931;-72
2024/04/15 01:11:35;;;;;;;;;;;;;;;14.24;100.00;95091.19;5288988;26;20010;-71
2024/04/15 01:14:02;;;;;;;;;;;;;;;14.19;100.00;95083.19;5286291;26;19953;-72
2024/04/15 01:16:39;;;;;;;;;;;;;;;14.16;100.00;95079.22;5286896;26;20361;-71
2024/04/15 01:19:07;;;;;;;;;;;;;;;14.11;100.00;95075.84;5296008;26;20353;-71
2024/04/15 01:21:34;;;;;;;;;;;;;;;14.05;100.00;95075.19;5295402;26;19930;-71
2024/04/15 01:24:02;;;;;;;;;;;;;;;14.01;100.00;95061.53;5284505;27;19931;-71
2024/04/15 01:26:31;;;;;;;;;;;;;;;14.01;100.00;95052.63;5285297;26;19937;-71
2024/04/15 01:28:58;;;;;;;;;;;;;;;14.03;100.00;95053.88;5288267;26;20284;-72
2024/04/15 01:31:26;;;;;;;;;;;;;;;14.01;100.00;95045.31;5288040;26;19931;-71
2024/04/15 01:33:53;;;;;;;;;;;;;;;14.03;100.00;95050.38;5285101;26;19938;-71
2024/04/15 01:36:20;;;;;;;;;;;;;;;14.05;100.00;95069.78;5288841;26;19931;-71
2024/04/15 01:38:47;;;;;;;;;;;;;;;14.12;100.00;95082.84;5286250;26;20641;-71
2024/04/15 01:41:15;;;;;;;;;;;;;;;14.16;100.00;95102.75;5283056;26;19931;-72
2024/04/15 01:43:42;;;;;;;;;;;;;;;14.09;100.00;95105.13;5283846;26;20358;-72
2024/04/15 01:46:09;;;;;;;;;;;;;;;14.06;100.00;95057.88;5286172;26;19931;-72
2024/04/15 01:48:37;;;;;;;;;;;;;;;14.12;100.00;95069.34;5296131;26;19930;-72
2024/04/15 01:51:04;;;;;;;;;;;;;;;14.14;100.00;95086.84;5288622;26;19936;-71
2024/04/15 01:53:31;;;;;;;;;;;;;;;14.07;100.00;95066.78;5289428;26;19930;-72
2024/04/15 01:55:59;;;;;;;;;;;;;;;14.11;100.00;95046.13;5285868;26;19941;-72
2024/04/15 01:58:26;;;;;;;;;;;;;;;14.09;100.00;95035.66;5290906;26;20625;-70
2024/04/15 02:01:01;;;;;;;;;;;;;;;14.13;100.00;95030.41;5283877;26;20332;-72
2024/04/15 02:03:28;;;;;;;;;;;;;;;14.12;100.00;94999.06;5285484;26;19937;-72
2024/04/15 02:05:56;;;;;;;;;;;;;;;14.07;100.00;94996.53;5281910;26;19937;-71
2024/04/15 02:08:23;;;;;;;;;;;;;;;13.97;100.00;95017.31;5292365;26;19938;-71
2024/04/15 02:10:50;;;;;;;;;;;;;;;13.92;100.00;94939.13;5258859;26;20329;-72
2024/04/15 02:13:17;;;;;;;;;;;;;;;13.96;100.00;94896.84;5287875;26;20369;-72
2024/04/15 02:15:45;;;;;;;;;;;;;;;13.86;100.00;94848.53;5284636;26;19931;-71
2024/04/15 02:18:12;;;;;;;;;;;;;;;13.89;100.00;94838.97;5282481;27;19938;-71
2024/04/15 02:20:40;;;;;;;;;;;;;;;13.69;100.00;94783.69;5286457;26;19930;-71
2024/04/15 02:23:08;;;;;;;;;;;;;;;13.74;100.00;94764.63;5301173;26;19937;-72
2024/04/15 02:25:35;;;;;;;;;;;;;;;13.77;100.00;94753.19;5284883;26;20316;-71
2024/04/15 02:28:03;;;;;;;;;;;;;;;13.75;100.00;94730.31;5282306;26;19931;-71
2024/04/15 02:30:30;;;;;;;;;;;;;;;13.74;100.00;94691.69;5285802;26;19931;-73
2024/04/15 02:32:57;;;;;;;;;;;;;;;13.67;100.00;94675.19;5286722;26;20656;-71
2024/04/15 02:35:24;;;;;;;;;;;;;;;13.61;100.00;94638.66;5281578;26;19937;-72
2024/04/15 02:37:52;;;;;;;;;;;;;;;13.57;100.00;94610.72;5287648;26;19930;-72
2024/04/15 02:40:19;;;;;;;;;;;;;;;13.64;100.00;94586.72;5266388;26;19937;-71
2024/04/15 02:42:46;;;;;;;;;;;;;;;13.62;100.00;94575.44;5291441;26;19937;-71
2024/04/15 02:45:14;;;;;;;;;;;;;;;13.61;100.00;94563.06;5286000;26;19937;-72
2024/04/15 02:47:42;;;;;;;;;;;;;;;13.63;100.00;94550.81;5285729;26;19937;-71
2024/04/15 02:50:09;;;;;;;;;;;;;;;13.56;100.00;94518.13;5288020;26;19931;-72
2024/04/15 02:52:36;;;;;;;;;;;;;;;13.60;100.00;94510.16;5284702;26;19938;-71
2024/04/15 02:57:54;;;;;;;;;;;;;;;13.58;100.00;94482.72;5275375;27;20462;-73
2024/04/15 03:00:21;;;;;;;;;;;;;;;13.58;100.00;94469.22;5279571;27;20285;-70
2024/04/15 03:02:49;;;;;;;;;;;;;;;13.58;100.00;94475.41;5274943;27;20380;-71
2024/04/15 03:05:17;;;;;;;;;;;;;;;13.61;100.00;94463.94;5273814;27;20519;-72
2024/04/15 03:07:46;;;;;;;;;;;;;;;13.69;100.00;94464.22;5270991;27;19930;-72
2024/04/15 03:10:13;;;;;;;;;;;;;;;13.72;100.00;94477.88;5280105;27;19937;-70
2024/04/15 03:12:41;;;;;;;;;;;;;;;13.75;100.00;94487.22;5279495;27;19931;-72
2024/04/15 03:15:08;;;;;;;;;;;;;;;13.75;100.00;94493.44;5272594;27;19959;-71
2024/04/15 03:17:35;;;;;;;;;;;;;;;13.75;100.00;94498.81;5276445;27;19930;-71
2024/04/15 03:20:04;;;;;;;;;;;;;;;13.74;100.00;94507.25;5275809;27;19937;-71
2024/04/15 03:22:31;;;;;;;;;;;;;;;13.73;100.00;94494.88;5277700;27;19941;-72
2024/04/15 03:24:58;;;;;;;;;;;;;;;13.67;100.00;94496.94;5279584;27;21012;-72
2024/04/15 03:27:26;;;;;;;;;;;;;;;13.59;100.00;94484.28;5272773;27;19930;-72
2024/04/15 03:29:53;;;;;;;;;;;;;;;13.53;100.00;94466.69;5273864;27;19959;-71
2024/04/15 03:32:20;;;;;;;;;;;;;;;13.60;100.00;94470.47;5274142;27;19942;-71
2024/04/15 03:34:48;;;;;;;;;;;;;;;13.57;100.00;94470.31;5268371;27;19931;-72
2024/04/15 03:37:15;;;;;;;;;;;;;;;13.51;100.00;94464.31;5276292;27;20280;-71
2024/04/15 03:39:42;;;;;;;;;;;;;;;13.50;100.00;94461.94;5274532;27;20279;-71
2024/04/15 03:42:09;;;;;;;;;;;;;;;13.48;100.00;94445.28;5277451;27;19948;-71
2024/04/15 03:44:38;;;;;;;;;;;;;;;13.46;100.00;94434.00;5267332;27;19931;-71
2024/04/15 03:47:10;;;;;;;;;;;;;;;13.40;100.00;94433.38;5270503;27;19931;-72
2024/04/15 03:49:37;;;;;;;;;;;;;;;13.45;100.00;94424.31;5277123;27;19931;-72
2024/04/15 03:52:04;;;;;;;;;;;;;;;13.41;100.00;94432.28;5269594;27;20285;-72
2024/04/15 03:54:33;;;;;;;;;;;;;;;13.44;100.00;94422.75;5242491;27;20361;-73
2024/04/15 03:57:00;;;;;;;;;;;;;;;13.30;100.00;94430.25;5270320;27;19942;-71
2024/04/15 03:59:27;;;;;;;;;;;;;;;13.28;100.00;94397.41;5273224;27;20962;-72
2024/04/15 04:01:55;;;;;;;;;;;;;;;13.25;100.00;94378.03;5270178;27;19941;-71
2024/04/15 04:04:31;;;;;;;;;;;;;;;13.25;100.00;94361.84;5275202;27;20983;-71
2024/04/15 04:06:58;;;;;;;;;;;;;;;13.22;100.00;94345.53;5270229;27;20012;-72
2024/04/15 04:09:26;;;;;;;;;;;;;;;13.18;100.00;94313.00;5276466;27;19937;-71
2024/04/15 04:11:54;;;;;;;;;;;;;;;13.15;100.00;94302.84;5270308;27;20384;-71
2024/04/15 04:14:21;;;;;;;;;;;;;;;13.17;100.00;94295.22;5273797;27;19934;-71
2024/04/15 04:16:48;;;;;;;;;;;;;;;13.19;100.00;94298.41;5275636;27;20462;-72
2024/04/15 04:19:21;;;;;;;;;;;;;;;13.12;100.00;94276.50;5271334;27;20486;-71
2024/04/15 04:21:49;;;;;;;;;;;;;;;13.11;100.00;94280.31;5277642;27;19938;-72
2024/04/15 04:24:16;;;;;;;;;;;;;;;13.11;100.00;94283.00;5274487;27;20229;-72
2024/04/15 04:26:44;;;;;;;;;;;;;;;13.02;100.00;94276.06;5273688;27;19938;-72
2024/04/15 04:29:11;;;;;;;;;;;;;;;12.97;100.00;94260.88;5277287;27;19931;-72
2024/04/15 04:31:39;;;;;;;;;;;;;;;13.05;100.00;94265.44;5272385;27;19937;-71
2024/04/15 04:34:06;;;;;;;;;;;;;;;13.04;100.00;94238.78;5277810;27;19938;-72
2024/04/15 04:36:33;;;;;;;;;;;;;;;13.02;100.00;94209.44;5281332;27;19931;-71
2024/04/15 04:39:00;;;;;;;;;;;;;;;13.09;100.00;94215.09;5249221;27;19941;-71
2024/04/15 04:41:28;;;;;;;;;;;;;;;13.11;100.00;94206.69;5278518;27;19931;-71
2024/04/15 04:43:55;;;;;;;;;;;;;;;13.09;100.00;94190.81;5275936;27;20792;-72
2024/04/15 04:46:22;;;;;;;;;;;;;;;13.08;100.00;94200.03;5278710;27;20366;-70
2024/04/15 04:48:50;;;;;;;;;;;;;;;12.99;100.00;94207.41;5278527;27;19937;-72
2024/04/15 04:51:18;;;;;;;;;;;;;;;12.93;100.00;94208.69;5272848;27;20494;-72
2024/04/15 04:53:45;;;;;;;;;;;;;;;12.90;100.00;94193.19;5279391;27;19938;-71
2024/04/15 04:56:13;;;;;;;;;;;;;;;12.90;100.00;94177.00;5279292;27;19937;-71
2024/04/15 04:58:41;;;;;;;;;;;;;;;12.88;100.00;94157.66;5278513;27;19931;-71
2024/04/15 05:01:15;;;;;;;;;;;;;;;12.87;100.00;94150.66;5274952;27;19937;-71
2024/04/15 05:03:44;;;;;;;;;;;;;;;12.89;100.00;94132.25;5279503;27;19957;-71
2024/04/15 05:06:12;;;;;;;;;;;;;;;12.94;100.00;94126.66;5276487;27;20401;-72
2024/04/15 05:08:39;;;;;;;;;;;;;;;12.88;100.00;94115.28;5280776;27;19931;-70
2024/04/15 05:11:07;;;;;;;;;;;;;;;12.90;100.00;94106.09;5277981;27;20463;-72
2024/04/15 05:13:34;;;;;;;;;;;;;;;12.90;100.00;94112.28;5277407;27;19932;-71
2024/04/15 05:16:02;;;;;;;;;;;;;;;12.92;100.00;94120.03;5274892;27;19930;-71
2024/04/15 05:18:30;;;;;;;;;;;;;;;12.90;100.00;94120.38;5281287;27;19931;-71
2024/04/15 05:20:59;;;;;;;;;;;;;;;12.85;100.00;94107.88;5279954;27;20450;-71
2024/04/15 05:23:27;;;;;;;;;;;;;;;12.94;100.00;94120.47;5276670;27;20380;-71
2024/04/15 05:25:55;;;;;;;;;;;;;;;12.86;100.00;94092.47;5275754;27;19931;-72
2024/04/15 05:28:22;;;;;;;;;;;;;;;12.80;100.00;94080.28;5279096;27;20274;-72
2024/04/15 05:30:53;;;;;;;;;;;;;;;12.77;100.00;94064.78;5279296;27;19931;-71
2024/04/15 05:33:20;;;;;;;;;;;;;;;12.74;100.00;94043.88;5264738;27;19935;-71
2024/04/15 05:35:48;;;;;;;;;;;;;;;12.73;100.00;94042.28;5277747;27;20232;-72
2024/04/15 05:38:15;;;;;;;;;;;;;;;12.71;100.00;94028.38;5280142;27;19937;-72
2024/04/15 05:40:43;;;;;;;;;;;;;;;12.70;100.00;93992.53;5277560;27;20447;-71
2024/04/15 05:43:10;;;;;;;;;;;;;;;12.78;100.00;93963.91;5279308;27;19937;-72
2024/04/15 05:45:38;;;;;;;;;;;;;;;12.74;100.00;93944.13;5278032;27;19930;-70
2024/04/15 05:48:06;;;;;;;;;;;;;;;12.68;100.00;93924.66;5271241;27;19942;-71
2024/04/15 05:50:33;;;;;;;;;;;;;;;12.66;100.00;93916.13;5278223;27;19938;-72
2024/04/15 05:53:00;;;;;;;;;;;;;;;12.68;100.00;93896.91;5280044;27;20396;-72
2024/04/15 05:55:28;;;;;;;;;;;;;;;12.64;100.00;93893.34;5276184;27;19931;-71
2024/04/15 05:57:55;;;;;;;;;;;;;;;12.68;100.00;93862.66;5267723;27;19938;-72
2024/04/15 06:00:22;;;;;;;;;;;;;;;12.71;100.00;93845.06;5274158;27;19931;-72
2024/04/15 06:02:49;;;;;;;;;;;;;;;12.70;100.00;93824.59;5249715;27;19931;-72
2024/04/15 06:05:17;;;;;;;;;;;;;;;12.66;100.00;93810.19;5274689;27;19934;-70
2024/04/15 06:07:44;;;;;;;;;;;;;;;12.64;100.00;93780.13;5274144;27;19937;-72
2024/04/15 06:10:11;;;;;;;;;;;;;;;12.62;100.00;93760.78;5277394;27;19931;-71
2024/04/15 06:12:40;;;;;;;;;;;;;;;12.64;100.00;93735.06;5277758;27;19937;-72
2024/04/15 06:15:07;;;;;;;;;;;;;;;12.66;100.00;93702.38;5278644;27;19931;-71
2024/04/15 06:17:35;;;;;;;;;;;;;;;12.70;100.00;93676.34;5276099;27;19930;-71
2024/04/15 06:20:02;;;;;;;;;;;;;;;12.75;100.00;93649.16;5280230;27;20380;-72
2024/04/15 06:22:29;;;;;;;;;;;;;;;12.75;100.00;93641.06;5275574;27;20643;-70
2024/04/15 06:24:56;;;;;;;;;;;;;;;12.69;100.00;93626.25;5279874;27;19935;-72
2024/04/15 06:27:24;;;;;;;;;;;;;;;12.71;100.00;93599.75;5279109;27;19984;-72
2024/04/15 06:29:51;;;;;;;;;;;;;;;12.74;100.00;93597.13;5276050;27;19937;-70
2024/04/15 06:32:19;;;;;;;;;;;;;;;12.75;100.00;93577.16;5275275;27;20309;-71
2024/04/15 06:34:46;;;;;;;;;;;;;;;12.75;100.00;93550.19;5279371;27;20280;-72
2024/04/15 06:37:13;;;;;;;;;;;;;;;12.98;100.00;93507.31;5279315;27;20259;-71
2024/04/15 06:39:42;;;;;;;;;;;;;;;12.99;100.00;93476.53;5278295;27;19931;-72
2024/04/15 06:42:10;;;;;;;;;;;;;;;13.03;100.00;93461.19;5278371;27;19931;-73
2024/04/15 06:44:37;;;;;;;;;;;;;;;12.95;100.00;93458.66;5279192;27;19931;-71
2024/04/15 06:47:04;;;;;;;;;;;;;;;13.04;100.00;93446.59;5280220;27;20365;-72
2024/04/15 06:49:32;;;;;;;;;;;;;;;13.01;100.00;93428.41;5274061;27;20493;-72
2024/04/15 06:51:59;;;;;;;;;;;;;;;12.92;100.00;93402.75;5277566;27;19942;-71
2024/04/15 06:54:27;;;;;;;;;;;;;;;12.90;100.00;93375.34;5276162;27;19937;-72
2024/04/15 06:56:55;;;;;;;;;;;;;;;12.82;100.00;93371.66;5272234;27;19941;-72
2024/04/15 06:59:23;;;;;;;;;;;;;;;12.88;100.00;93370.28;5271307;27;19937;-71
2024/04/15 07:01:50;;;;;;;;;;;;;;;12.98;100.00;93361.69;5274956;27;19931;-72
2024/04/15 07:04:17;;;;;;;;;;;;;;;13.04;100.00;93346.81;5275827;27;19930;-72
2024/04/15 07:06:45;;;;;;;;;;;;;;;13.06;100.00;93343.78;5276942;27;20479;-71
2024/04/15 07:09:15;;;;;;;;;;;;;;;12.97;100.00;93354.72;5269172;27;19948;-72
2024/04/15 07:11:42;;;;;;;;;;;;;;;13.09;100.00;93340.34;5276965;27;20329;-72
2024/04/15 07:14:09;;;;;;;;;;;;;;;13.13;100.00;93320.47;5276122;27;19938;-72
2024/04/15 07:16:36;;;;;;;;;;;;;;;13.22;100.00;93318.38;5271415;27;19950;-72
2024/04/15 07:19:04;;;;;;;;;;;;;;;13.20;100.00;93312.56;5274666;27;19931;-71
2024/04/15 07:21:31;;;;;;;;;;;;;;;13.19;100.00;93305.59;5271969;27;19931;-72
2024/04/15 07:23:58;;;;;;;;;;;;;;;13.07;100.00;93305.66;5246303;27;19932;-72
2024/04/15 07:26:25;;;;;;;;;;;;;;;13.08;100.00;93301.81;5277886;27;19931;-72
2024/04/15 07:28:53;;;;;;;;;;;;;;;13.04;100.00;93302.88;5276202;27;21016;-72
2024/04/15 07:31:20;;;;;;;;;;;;;;;12.93;100.00;93307.25;5271457;27;20309;-73
2024/04/15 07:33:47;;;;;;;;;;;;;;;12.93;100.00;93297.22;5272217;27;19937;-71
2024/04/15 07:36:15;;;;;;;;;;;;;;;12.99;100.00;93301.22;5274298;27;19937;-72
2024/04/15 07:38:42;;;;;;;;;;;;;;;12.96;100.00;93293.81;5276073;27;19942;-71
2024/04/15 07:41:09;;;;;;;;;;;;;;;12.92;100.00;93276.00;5275831;27;19931;-71
2024/04/15 07:43:36;;;;;;;;;;;;;;;13.01;100.00;93269.28;5272444;27;19931;-71
2024/04/15 07:46:04;;;;;;;;;;;;;;;13.10;100.00;93247.53;5281173;27;20715;-70
2024/04/15 07:48:31;;;;;;;;;;;;;;;13.14;100.00;93246.53;5269392;27;19931;-71
2024/04/15 07:51:00;;;;;;;;;;;;;;;13.21;100.00;93238.59;5269466;27;19933;-72
2024/04/15 07:53:27;;;;;;;;;;;;;;;13.23;100.00;93236.31;5276316;27;19985;-71
2024/04/15 07:55:54;;;;;;;;;;;;;;;13.25;100.00;93233.25;5277735;27;19937;-71
2024/04/15 07:58:21;;;;;;;;;;;;;;;13.21;100.00;93232.41;5280064;27;20376;-71
2024/04/15 08:00:50;;;;;;;;;;;;;;;12.99;100.00;93243.81;5280268;27;19937;-70
2024/04/15 08:03:17;;;;;;;;;;;;;;;12.99;100.00;93238.44;5280099;27;19937;-71
2024/04/15 08:05:44;;;;;;;;;;;;;;;13.01;100.00;93231.53;5272250;27;19934;-71
2024/04/15 08:08:12;;;;;;;;;;;;;;;12.94;100.00;93225.97;5268346;27;19937;-70
2024/04/15 08:10:39;;;;;;;;;;;;;;;13.01;100.00;93218.03;5278496;27;19931;-71
2024/04/15 08:13:06;;;;;;;;;;;;;;;13.18;100.00;93201.53;5271013;27;19938;-72
2024/04/15 08:15:34;;;;;;;;;;;;;;;13.30;100.00;93191.72;5273539;27;19931;-72
2024/04/15 08:18:01;;;;;;;;;;;;;;;13.33;100.00;93186.41;5276146;27;19931;-71
2024/04/15 08:20:29;;;;;;;;;;;;;;;13.37;100.00;93184.56;5281405;27;20367;-71
2024/04/15 08:22:56;;;;;;;;;;;;;;;13.50;100.00;93198.72;5276785;27;19931;-72
2024/04/15 08:25:23;;;;;;;;;;;;;;;13.49;100.00;93203.34;5279715;27;19931;-71
2024/04/15 08:27:51;;;;;;;;;;;;;;;13.34;100.00;93195.28;5277552;27;20471;-72
2024/04/15 08:30:22;;;;;;;;;;;;;;;13.46;100.00;93197.84;5252276;27;20422;-72
2024/04/15 08:32:51;;;;;;;;;;;;;;;13.49;100.00;93195.25;5281994;27;19931;-72
2024/04/15 08:35:19;;;;;;;;;;;;;;;13.58;100.00;93193.13;5280597;27;19930;-71
2024/04/15 08:37:46;;;;;;;;;;;;;;;13.69;100.00;93196.03;5272786;27;19931;-70
2024/04/15 08:40:13;;;;;;;;;;;;;;;13.63;100.00;93205.53;5275789;27;20271;-72
2024/04/15 08:42:40;;;;;;;;;;;;;;;13.52;100.00;93209.94;5276731;27;20360;-72
2024/04/15 08:45:08;;;;;;;;;;;;;;;13.34;100.00;93247.34;5268019;27;20395;-71
2024/04/15 08:47:36;;;;;;;;;;;;;;;13.24;100.00;93261.38;5263989;27;19937;-71
2024/04/15 08:50:05;;;;;;;;;;;;;;;13.30;100.00;93272.66;5274032;27;19954;-72
2024/04/15 08:52:32;;;;;;;;;;;;;;;13.20;100.00;93288.28;5280133;27;19931;-71
2024/04/15 08:55:03;;;;;;;;;;;;;;;13.13;100.00;93307.00;5281298;27;19931;-72
2024/04/15 08:57:31;;;;;;;;;;;;;;;13.19;100.00;93308.28;5273345;27;19946;-72
2024/04/15 08:59:59;;;;;;;;;;;;;;;13.29;100.00;93331.25;5280977;27;19931;-71
2024/04/15 09:02:28;;;;;;;;;;;;;;;13.28;100.00;93334.31;5276894;27;19931;-72
2024/04/15 09:04:56;;;;;;;;;;;;;;;13.25;100.00;93358.16;5280442;27;19930;-71
2024/04/15 09:07:25;;;;;;;;;;;;;;;13.16;100.00;93354.84;5280097;27;19937;-71
2024/04/15 09:09:54;;;;;;;;;;;;;;;13.10;100.00;93350.81;5278443;27;20382;-71
2024/04/15 09:12:22;;;;;;;;;;;;;;;13.03;100.00;93350.63;5273276;27;20272;-72
2024/04/15 09:14:50;;;;;;;;;;;;;;;13.23;100.00;93346.13;5280522;27;19931;-72
2024/04/15 09:17:17;;;;;;;;;;;;;;;13.30;100.00;93359.00;5271862;27;19930;-72
2024/04/15 09:19:44;;;;;;;;;;;;;;;13.17;100.00;93361.00;5281992;27;19931;-71
2024/04/15 09:22:12;;;;;;;;;;;;;;;13.37;100.00;93359.19;5274564;27;19931;-71
2024/04/15 09:24:40;;;;;;;;;;;;;;;13.38;100.00;93382.31;5273808;27;20529;-72
2024/04/15 09:27:07;;;;;;;;;;;;;;;13.42;100.00;93378.59;5279878;27;20307;-72
2024/04/15 09:29:34;;;;;;;;;;;;;;;13.48;100.00;93385.28;5279488;27;19953;-71
2024/04/15 09:32:04;;;;;;;;;;;;;;;13.56;100.00;93389.72;5272826;27;20269;-71
2024/04/15 09:34:31;;;;;;;;;;;;;;;13.56;100.00;93394.34;5277387;27;20333;-72
2024/04/15 09:36:58;;;;;;;;;;;;;;;13.67;100.00;93421.56;5278407;27;20520;-72
2024/04/15 09:39:26;;;;;;;;;;;;;;;13.59;100.00;93453.78;5276837;27;20121;-72
2024/04/15 09:41:54;;;;;;;;;;;;;;;13.73;100.00;93474.19;5280620;27;20013;-71
2024/04/15 09:44:22;;;;;;;;;;;;;;;13.80;100.00;93512.94;5272899;27;19931;-71
2024/04/15 09:46:51;;;;;;;;;;;;;;;13.81;100.00;93549.59;5273781;27;19958;-72
2024/04/15 09:49:20;;;;;;;;;;;;;;;13.69;100.00;93603.69;5277192;27;19930;-72
2024/04/15 09:51:51;;;;;;;;;;;;;;;13.72;100.00;93619.19;5275368;27;19931;-72
2024/04/15 09:54:22;;;;;;;;;;;;;;;13.76;100.00;93638.97;5280797;27;20378;-71
2024/04/15 09:56:55;;;;;;;;;;;;;;;13.79;100.00;93699.59;5276251;27;19937;-72
2024/04/15 09:59:24;;;;;;;;;;;;;;;13.75;100.00;93750.00;5273861;27;19937;-72
2024/04/15 10:01:53;;;;;;;;;;;;;;;13.54;100.00;95127.06;5277130;27;20377;-72
2024/04/15 10:04:21;;;;;;;;;;;;;;;13.68;100.00;95122.38;5276896;27;20539;-71
2024/04/15 10:06:54;;;;;;;;;;;;;;;13.74;100.00;95129.25;5272459;27;20039;-72
2024/04/15 10:09:23;;;;;;;;;;;;;;;13.84;100.00;95129.00;5275051;27;19931;-72
2024/04/15 10:11:51;;;;;;;;;;;;;;;13.89;100.00;95120.75;5279130;27;19931;-72
2024/04/15 10:14:19;;;;;;;;;;;;;;;13.85;100.00;95119.78;5268572;27;19937;-72
2024/04/15 10:16:49;;;;;;;;;;;;;;;13.83;100.00;95132.00;5276625;27;19931;-72
2024/04/15 10:19:23;;;;;;;;;;;;;;;13.57;100.00;95129.97;5273965;27;19935;-71
2024/04/15 10:21:51;;;;;;;;;;;;;;;13.79;100.00;95126.44;5278793;27;20474;-72
2024/04/15 10:24:21;;;;;;;;;;;;;;;13.77;100.00;95128.63;5273335;27;19931;-72
2024/04/15 10:26:48;;;;;;;;;;;;;;;13.80;100.00;95128.03;5270934;27;19938;-72
2024/04/15 10:29:17;;;;;;;;;;;;;;;13.79;100.00;95131.03;5275102;27;20361;-72
2024/04/15 10:31:50;;;;;;;;;;;;;;;13.92;100.00;95128.25;5273322;27;19937;-72
2024/04/15 10:34:19;;;;;;;;;;;;;;;13.95;100.00;95124.91;5277743;27;19935;-72
2024/04/15 10:36:54;;;;;;;;;;;;;;;13.91;100.00;95117.75;5275565;27;20460;-72
2024/04/15 10:39:22;;;;;;;;;;;;;;;13.90;100.00;95105.34;5276212;27;19937;-73
2024/04/15 10:41:51;;;;;;;;;;;;;;;13.98;100.00;95097.28;5276321;27;19931;-72
2024/04/15 10:44:18;;;;;;;;;;;;;;;14.00;100.00;95086.16;5278230;27;20268;-71
2024/04/15 10:46:46;;;;;;;;;;;;;;;13.83;100.00;95092.28;5271483;27;19931;-73
2024/04/15 10:49:14;;;;;;;;;;;;;;;13.93;100.00;95083.91;5275214;27;19938;-72
2024/04/15 10:51:42;;;;;;;;;;;;;;;14.04;100.00;95084.41;5277004;27;19937;-72
2024/04/15 10:54:10;;;;;;;;;;;;;;;14.03;100.00;95080.91;5275587;27;19938;-71
2024/04/15 10:56:37;;;;;;;;;;;;;;;14.00;100.00;95076.16;5272795;27;19938;-72
2024/04/15 10:59:04;;;;;;;;;;;;;;;14.11;100.00;95081.25;5275157;27;20358;-72
2024/04/15 11:01:32;;;;;;;;;;;;;;;14.19;100.00;95072.38;5280318;27;19931;-71
2024/04/15 11:04:04;;;;;;;;;;;;;;;14.27;100.00;95066.22;5281033;27;20334;-71
2024/04/15 11:06:33;;;;;;;;;;;;;;;14.24;100.00;95061.44;5277117;27;20269;-72
2024/04/15 11:09:00;;;;;;;;;;;;;;;14.39;100.00;95058.34;5277449;27;19931;-71
2024/04/15 11:11:27;;;;;;;;;;;;;;;14.39;100.00;95052.94;5274246;27;20361;-71
2024/04/15 11:13:55;;;;;;;;;;;;;;;14.51;100.00;95047.69;5273415;27;19937;-72
2024/04/15 11:16:23;;;;;;;;;;;;;;;14.53;100.00;95044.69;5277207;27;19930;-72
2024/04/15 11:18:51;;;;;;;;;;;;;;;14.53;100.00;95050.88;5273670;27;19931;-72
2024/04/15 11:21:18;;;;;;;;;;;;;;;14.60;100.00;95050.41;5277565;27;19931;-72
2024/04/15 11:23:46;;;;;;;;;;;;;;;14.60;100.00;95043.09;5277063;27;19931;-72
2024/04/15 11:26:14;;;;;;;;;;;;;;;14.59;100.00;95046.91;5277916;27;20522;-71
2024/04/15 11:28:42;;;;;;;;;;;;;;;14.61;100.00;95050.06;5277351;27;19941;-72
2024/04/15 11:31:10;;;;;;;;;;;;;;;14.61;100.00;95054.72;5279912;27;19941;-72
2024/04/15 11:33:38;;;;;;;;;;;;;;;14.58;100.00;95053.44;5281948;27;19935;-72
2024/04/15 11:36:13;;;;;;;;;;;;;;;14.38;100.00;95056.75;5278640;27;19937;-72
2024/04/15 11:38:40;;;;;;;;;;;;;;;14.37;100.00;95055.91;5273687;27;19937;-71
2024/04/15 11:41:07;;;;;;;;;;;;;;;14.36;100.00;95058.94;5281463;27;20366;-72
2024/04/15 11:43:36;;;;;;;;;;;;;;;14.28;100.00;95057.00;5276930;27;19938;-71
2024/04/15 11:46:04;;;;;;;;;;;;;;;14.31;100.00;95053.69;5281758;27;19931;-72
2024/04/15 11:48:31;;;;;;;;;;;;;;;14.40;100.00;95043.69;5279405;27;19937;-71
2024/04/15 11:50:58;;;;;;;;;;;;;;;14.40;100.00;95055.28;5278886;27;19932;-72
2024/04/15 11:53:26;;;;;;;;;;;;;;;14.44;100.00;95049.28;5279688;27;19931;-72
2024/04/15 11:55:53;;;;;;;;;;;;;;;14.49;100.00;95033.69;5280709;27;19935;-71
2024/04/15 11:58:22;;;;;;;;;;;;;;;14.51;100.00;95033.38;5269710;27;19931;-72
2024/04/15 12:00:50;;;;;;;;;;;;;;;14.77;100.00;95021.44;5273481;27;19937;-72
2024/04/15 12:03:18;;;;;;;;;;;;;;;14.85;100.00;95019.84;5273954;27;20370;-71
2024/04/15 12:05:46;;;;;;;;;;;;;;;14.60;100.00;95024.16;5273149;27;19931;-71
2024/04/15 12:08:13;;;;;;;;;;;;;;;14.62;100.00;95016.50;5267225;27;19931;-72
2024/04/15 12:10:40;;;;;;;;;;;;;;;14.66;100.00;95011.28;5278859;27;19950;-72
2024/04/15 12:13:08;;;;;;;;;;;;;;;14.65;100.00;95010.47;5282181;27;19930;-72
2024/04/15 12:15:35;;;;;;;;;;;;;;;14.68;100.00;95007.13;5278657;27;19937;-73
2024/04/15 12:18:03;;;;;;;;;;;;;;;14.67;100.00;95002.84;5274600;27;20183;-73
2024/04/15 12:20:30;;;;;;;;;;;;;;;14.88;100.00;94984.06;5283779;27;19965;-72
2024/04/15 12:22:57;;;;;;;;;;;;;;;14.82;100.00;95000.78;5272350;27;19931;-71
2024/04/15 12:25:25;;;;;;;;;;;;;;;14.86;100.00;94975.44;5274187;27;19930;-72
2024/04/15 12:27:52;;;;;;;;;;;;;;;14.83;100.00;94981.50;5277123;27;20381;-71
2024/04/15 12:30:19;;;;;;;;;;;;;;;14.76;100.00;94960.34;5275678;27;19936;-72
2024/04/15 12:32:47;;;;;;;;;;;;;;;14.66;100.00;94965.28;5281425;27;20330;-71
2024/04/15 12:35:14;;;;;;;;;;;;;;;14.62;100.00;94950.78;5282822;27;19930;-72
2024/04/15 12:37:42;;;;;;;;;;;;;;;14.85;100.00;94937.88;5282024;27;19936;-72
2024/04/15 12:40:10;;;;;;;;;;;;;;;15.04;100.00;94927.50;5273092;27;19931;-72